Time;durP1;ratioP1;P1;durP2;ratioP2;P2;SDS_P1;SDS_P2;PMS_P1;PMS_P2;Temp;Humidity;BMP_temperature;BMP_pressure;BME280_temperature;BME280_humidity;BME280_pressure;Samples;Min_cycle;Max_cycle;Signal;HPM_P1;HPM_P2
2022/06/02 09:16:01;;;;;;;4.27;2.30;;;14.20;99.90;;;;;;5042488;27;20266;-62
2022/06/02 09:18:59;;;;;;;3.85;1.90;;;14.10;99.90;;;;;;5003956;28;20285;-62
2022/06/02 09:21:29;;;;;;;1.45;1.35;;;14.10;99.90;;;;;;5045936;28;20606;-62
2022/06/02 09:24:03;;;;;;;2.47;1.60;;;14.10;99.90;;;;;;5036961;28;20212;-62
2022/06/02 09:26:57;;;;;;;2.05;1.55;;;14.00;99.90;;;;;;5059379;28;20295;-62
2022/06/02 09:29:29;;;;;;;2.53;1.90;;;14.10;99.90;;;;;;5051368;28;20206;-62
2022/06/02 09:32:21;;;;;;;5.13;1.95;;;14.10;99.90;;;;;;5020030;28;20228;-63
2022/06/02 09:35:06;;;;;;;5.00;2.33;;;14.10;99.90;;;;;;5037896;28;20228;-62
2022/06/02 09:38:19;;;;;;;2.95;1.95;;;14.10;99.90;;;;;;5035632;28;21127;-62
2022/06/02 09:40:49;;;;;;;2.08;1.73;;;14.30;99.90;;;;;;5045767;28;20199;-62
2022/06/02 11:53:59;;;;;;;3.03;1.45;;;15.60;99.90;;;;;;5083314;27;20298;-62
2022/06/02 11:56:42;;;;;;;1.80;1.50;;;15.70;99.90;;;;;;5062213;27;20260;-63
2022/06/02 11:59:58;;;;;;;3.42;1.42;;;15.80;99.90;;;;;;5087355;27;20773;-62
2022/06/02 12:03:01;;;;;;;2.53;1.30;;;15.90;99.90;;;;;;5022757;28;20220;-62
2022/06/02 12:06:01;;;;;;;3.70;1.40;;;15.90;99.90;;;;;;5095552;27;20230;-62
2022/06/02 12:09:01;;;;;;;4.82;1.58;;;15.90;99.90;;;;;;4989591;28;20252;-62
2022/06/02 12:11:54;;;;;;;2.58;1.20;;;15.80;99.90;;;;;;5081904;27;20207;-63
2022/06/02 12:14:33;;;;;;;2.35;1.50;;;15.90;99.90;;;;;;5076169;27;20207;-63
2022/06/02 12:17:24;;;;;;;5.60;1.77;;;15.90;99.90;;;;;;5089665;27;20987;-63
2022/06/02 12:20:20;;;;;;;2.10;1.23;;;15.80;99.90;;;;;;5078124;27;21242;-63
2022/06/02 12:23:18;;;;;;;3.22;1.00;;;15.80;99.90;;;;;;5069469;27;20231;-62
2022/06/02 12:26:01;;;;;;;5.32;1.65;;;15.70;99.90;;;;;;5078194;27;20391;-62
2022/06/02 12:28:48;;;;;;;4.10;1.42;;;15.60;99.90;;;;;;5067963;27;20246;-63
2022/06/02 12:31:54;;;;;;;1.90;1.30;;;16.10;99.90;;;;;;5068478;27;20869;-63
2022/06/02 12:34:55;;;;;;;3.35;1.50;;;15.90;99.90;;;;;;5085634;27;20218;-63
2022/06/02 12:39:18;;;;;;;1.45;1.20;;;16.20;99.90;;;;;;5052447;27;20522;-62
2022/06/02 12:42:41;;;;;;;1.98;1.25;;;16.40;99.90;;;;;;5036606;28;20207;-62
2022/06/02 12:49:01;;;;;;;6.45;1.40;;;16.40;99.90;;;;;;5066603;27;24051;-62
2022/06/02 12:51:44;;;;;;;1.45;1.20;;;16.70;99.90;;;;;;5055941;27;20307;-62
2022/06/02 12:54:57;;;;;;;4.47;1.27;;;16.80;99.90;;;;;;5050848;28;20234;-61
2022/06/02 12:57:56;;;;;;;1.52;0.95;;;16.70;99.90;;;;;;5047182;28;20664;-62
2022/06/02 13:00:56;;;;;;;3.20;1.40;;;16.10;99.90;;;;;;5048551;28;20223;-62
2022/06/02 13:04:02;;;;;;;2.47;1.33;;;16.00;99.90;;;;;;5058233;28;20225;-62
2022/06/02 13:06:56;;;;;;;1.30;1.20;;;16.30;99.90;;;;;;5065868;28;20265;-62
2022/06/02 13:09:45;;;;;;;1.58;1.27;;;16.20;99.90;;;;;;5036899;28;20227;-62
2022/06/02 13:12:51;;;;;;;4.05;1.40;;;16.20;99.90;;;;;;5054795;28;20223;-62
2022/06/02 13:15:34;;;;;;;1.90;1.00;;;16.20;99.90;;;;;;5044144;28;20211;-62
2022/06/02 13:18:27;;;;;;;2.50;1.10;;;16.30;99.90;;;;;;5054431;28;20239;-63
2022/06/02 13:21:27;;;;;;;2.55;1.30;;;16.30;99.90;;;;;;5073480;28;20215;-62
2022/06/02 13:24:19;;;;;;;3.75;1.30;;;16.20;99.90;;;;;;5044215;28;20301;-64
2022/06/02 13:27:30;;;;;;;3.13;1.50;;;16.40;99.90;;;;;;5076527;28;20218;-63
2022/06/02 13:30:26;;;;;;;2.83;1.30;;;16.80;99.90;;;;;;5023888;28;20208;-62
2022/06/02 13:33:28;;;;;;;4.45;1.40;;;17.00;99.90;;;;;;5065707;28;20250;-62
2022/06/02 13:36:31;;;;;;;4.95;1.65;;;16.70;99.90;;;;;;5070959;28;20603;-62
2022/06/02 13:39:41;;;;;;;2.95;1.17;;;16.40;99.90;;;;;;5079371;28;20905;-61
2022/06/02 13:42:59;;;;;;;3.40;1.35;;;16.50;99.90;;;;;;5047158;28;20214;-63
2022/06/02 13:45:54;;;;;;;3.20;1.20;;;16.50;99.90;;;;;;5049590;28;20229;-62
2022/06/02 13:49:01;;;;;;;3.50;1.35;;;16.60;99.90;;;;;;5061491;28;20258;-65
2022/06/02 13:52:03;;;;;;;4.13;1.38;;;16.70;99.90;;;;;;5072116;28;20280;-62
2022/06/02 13:57:55;;;;;;;2.08;1.20;;;16.90;99.90;;;;;;5072850;28;20255;-63
2022/06/02 14:00:44;;;;;;;1.50;1.20;;;16.80;99.90;;;;;;5051128;28;20200;-63
2022/06/02 14:03:46;;;;;;;4.68;1.20;;;17.10;99.90;;;;;;5058881;28;20307;-62
2022/06/02 14:06:18;;;;;;;2.42;1.60;;;17.30;99.90;;;;;;5050923;28;20207;-62
2022/06/02 14:09:07;;;;;;;1.63;1.20;;;17.20;99.90;;;;;;5066703;28;20199;-62
2022/06/02 14:11:49;;;;;;;2.65;1.30;;;17.30;99.90;;;;;;5052083;28;20200;-62
2022/06/02 14:15:05;;;;;;;2.25;1.50;;;17.20;99.90;;;;;;5059021;28;20411;-62
2022/06/02 14:18:10;;;;;;;1.38;1.17;;;17.30;99.90;;;;;;5023689;28;20227;-62
2022/06/02 14:20:44;;;;;;;4.90;1.40;;;17.30;99.90;;;;;;5016643;28;20199;-62
2022/06/02 14:23:24;;;;;;;1.30;1.20;;;;;;;;;;5042494;28;20378;-62
2022/06/02 14:26:02;;;;;;;2.38;1.45;;;17.10;99.90;;;;;;5047406;28;22515;-62
2022/06/02 14:29:01;;;;;;;4.32;1.80;;;17.00;99.90;;;;;;5043213;28;20225;-61
2022/06/02 14:31:39;;;;;;;2.97;1.30;;;16.90;99.90;;;;;;5014485;28;20268;-62
2022/06/02 14:34:14;;;;;;;1.33;1.02;;;17.00;99.90;;;;;;5040237;28;20610;-62
2022/06/02 14:36:48;;;;;;;3.35;1.27;;;17.00;99.90;;;;;;5058735;28;20677;-61
2022/06/02 14:39:31;;;;;;;2.20;1.50;;;17.10;99.90;;;;;;5063348;28;20191;-62
2022/06/02 14:42:21;;;;;;;1.70;1.50;;;16.70;99.90;;;;;;5067498;28;20197;-61
2022/06/02 14:44:58;;;;;;;5.28;1.40;;;17.10;99.90;;;;;;5046762;28;20212;-62
2022/06/02 14:47:37;;;;;;;1.45;1.35;;;17.40;99.90;;;;;;5045910;28;20754;-62
2022/06/02 14:50:27;;;;;;;4.13;1.60;;;17.00;99.90;;;;;;5047128;28;20227;-61
2022/06/02 14:53:24;;;;;;;5.30;1.60;;;16.80;99.90;;;;;;5046218;28;21210;-61
2022/06/02 14:56:03;;;;;;;7.00;1.60;;;16.90;99.90;;;;;;5053424;28;20584;-62
2022/06/02 14:58:38;;;;;;;1.30;1.20;;;16.90;99.90;;;;;;5045864;28;20219;-62
2022/06/02 15:01:27;;;;;;;1.20;1.00;;;16.80;99.90;;;;;;5049410;28;20203;-62
2022/06/02 15:04:39;;;;;;;2.65;1.20;;;16.80;99.90;;;;;;5037031;28;20686;-62
2022/06/02 15:07:28;;;;;;;1.40;1.20;;;16.80;99.90;;;;;;5033410;28;23684;-62
2022/06/02 15:10:25;;;;;;;1.17;1.08;;;16.90;99.90;;;;;;5040010;28;20235;-62
2022/06/02 15:13:25;;;;;;;2.97;1.10;;;17.10;99.90;;;;;;5037332;28;20207;-63
2022/06/02 15:16:12;;;;;;;1.88;1.52;;;17.20;99.90;;;;;;5045917;28;20212;-62
2022/06/02 15:19:20;;;;;;;2.33;1.35;;;17.10;99.90;;;;;;5045854;28;20215;-62
2022/06/02 15:22:16;;;;;;;1.60;1.30;;;17.10;99.90;;;;;;4982527;28;20202;-62
2022/06/02 15:24:53;;;;;;;2.53;1.30;;;17.10;99.90;;;;;;4988896;28;20950;-63
2022/06/02 15:27:55;;;;;;;3.53;1.35;;;17.00;99.90;;;;;;5035683;28;20215;-63
2022/06/02 15:30:41;;;;;;;1.63;1.25;;;17.00;99.90;;;;;;5053320;28;20207;-62
2022/06/02 15:33:38;;;;;;;0.90;0.90;;;17.00;99.90;;;;;;5037748;28;20195;-63
2022/06/02 15:36:40;;;;;;;4.30;1.30;;;17.00;99.90;;;;;;5054753;28;20211;-63
2022/06/02 15:39:36;;;;;;;1.95;1.23;;;17.10;99.90;;;;;;5034718;28;20199;-63
2022/06/02 15:42:54;;;;;;;1.88;1.30;;;16.90;99.90;;;;;;5054493;28;20226;-63
2022/06/02 15:45:48;;;;;;;4.63;1.48;;;17.70;99.90;;;;;;5001407;28;20208;-62
2022/06/02 15:48:58;;;;;;;1.65;1.15;;;17.00;99.90;;;;;;5014842;28;20228;-62
2022/06/02 15:51:52;;;;;;;3.17;1.17;;;17.10;99.90;;;;;;4976703;28;20645;-62
2022/06/02 15:54:51;;;;;;;2.20;1.20;;;18.30;99.90;;;;;;5008153;28;20198;-62
2022/06/02 15:58:08;;;;;;;2.75;1.58;;;17.10;99.90;;;;;;5002494;28;20877;-62
2022/06/02 16:01:06;;;;;;;4.40;1.40;;;17.20;99.90;;;;;;4920793;28;20211;-62
2022/06/02 16:04:04;;;;;;;11.77;1.67;;;17.30;99.90;;;;;;4938657;28;20206;-62
2022/06/02 16:07:15;;;;;;;2.63;1.67;;;17.30;99.90;;;;;;5007456;28;20256;-62
2022/06/02 16:13:26;;;;;;;6.53;1.70;;;17.40;99.90;;;;;;5007535;28;20879;-62
2022/06/02 16:16:26;;;;;;;7.30;1.80;;;17.30;99.90;;;;;;5010697;28;20205;-62
2022/06/02 16:19:24;;;;;;;5.22;2.15;;;17.30;99.90;;;;;;4978813;28;20792;-63
2022/06/02 16:22:16;;;;;;;1.83;1.60;;;17.30;99.90;;;;;;5007581;28;20221;-62
2022/06/02 16:25:31;;;;;;;3.67;1.77;;;17.30;99.90;;;;;;4980974;28;20437;-63
2022/06/02 16:28:41;;;;;;;5.80;2.10;;;17.20;99.90;;;;;;5007231;28;20312;-62
2022/06/02 16:31:10;;;;;;;3.38;1.73;;;;;;;;;;4988365;28;20197;-62
2022/06/02 16:33:57;;;;;;;3.05;1.40;;;17.20;99.90;;;;;;5001436;28;20204;-63
2022/06/02 16:36:48;;;;;;;4.82;1.50;;;17.20;99.90;;;;;;4991469;28;20675;-63
2022/06/02 16:39:32;;;;;;;3.30;1.63;;;17.20;99.90;;;;;;4998440;28;20233;-63
2022/06/02 16:42:18;;;;;;;4.57;1.40;;;17.20;99.90;;;;;;4998022;28;20658;-62
2022/06/02 16:45:22;;;;;;;6.10;1.90;;;17.20;99.90;;;;;;4997882;28;20241;-62
2022/06/02 16:48:15;;;;;;;10.30;1.88;;;17.20;99.90;;;;;;5014600;28;20232;-63
2022/06/02 16:51:14;;;;;;;3.35;2.15;;;18.40;99.90;;;;;;5016017;28;20243;-63
2022/06/02 16:53:54;;;;;;;1.95;1.60;;;17.20;99.90;;;;;;5021650;28;20319;-64
2022/06/02 16:56:50;;;;;;;2.78;2.03;;;17.10;99.90;;;;;;5055235;28;20227;-63
2022/06/02 16:59:37;;;;;;;5.03;1.60;;;17.00;99.90;;;;;;5043837;28;20214;-62
2022/06/02 17:02:17;;;;;;;6.25;2.00;;;17.00;99.90;;;;;;5031900;28;20211;-62
2022/06/02 17:05:12;;;;;;;5.00;1.90;;;17.20;99.90;;;;;;5052751;28;20223;-62
2022/06/02 17:08:24;;;;;;;3.83;2.03;;;16.90;99.90;;;;;;5024185;28;20285;-61
2022/06/02 17:10:55;;;;;;;2.53;1.95;;;16.90;99.90;;;;;;4973823;28;20326;-62
2022/06/02 17:13:30;;;;;;;6.35;2.15;;;16.90;99.90;;;;;;5021769;28;20231;-63
2022/06/02 17:16:31;;;;;;;4.47;2.22;;;16.90;99.90;;;;;;5030223;28;20602;-62
2022/06/02 17:19:29;;;;;;;7.25;2.53;;;16.90;99.90;;;;;;5046695;28;20208;-63
2022/06/02 17:22:22;;;;;;;10.70;2.70;;;17.00;99.90;;;;;;5044659;28;20200;-63
2022/06/02 17:25:13;;;;;;;4.05;1.80;;;16.90;99.90;;;;;;5041679;28;20229;-62
2022/06/02 17:27:55;;;;;;;4.90;1.92;;;16.90;99.90;;;;;;5052911;28;20224;-63
2022/06/02 17:30:30;;;;;;;3.58;1.90;;;16.70;99.90;;;;;;5034831;28;21037;-62
2022/06/02 17:33:10;;;;;;;7.63;1.98;;;16.70;99.90;;;;;;5033151;28;20223;-62
2022/06/02 17:35:53;;;;;;;5.22;2.22;;;16.70;99.90;;;;;;5059656;28;20200;-63
2022/06/02 17:39:15;;;;;;;4.10;1.85;;;16.60;99.90;;;;;;5044981;28;20207;-63
2022/06/02 17:41:56;;;;;;;3.70;2.10;;;16.50;99.90;;;;;;5054559;28;20662;-62
2022/06/02 17:44:46;;;;;;;5.70;1.98;;;16.50;99.90;;;;;;5046430;28;20200;-62
2022/06/02 17:47:36;;;;;;;4.63;2.58;;;16.70;99.90;;;;;;5023079;28;21005;-63
2022/06/02 17:50:31;;;;;;;2.72;1.90;;;16.30;99.90;;;;;;5060348;28;20665;-62
2022/06/02 17:53:18;;;;;;;2.20;1.35;;;16.30;99.90;;;;;;5046392;28;20204;-62
2022/06/02 17:56:00;;;;;;;2.80;1.30;;;16.40;99.90;;;;;;5047644;28;20728;-62
2022/06/02 17:58:56;;;;;;;2.33;1.95;;;16.60;99.90;;;;;;5055770;28;20202;-62
2022/06/02 18:01:49;;;;;;;2.53;1.75;;;16.60;99.90;;;;;;4982363;28;20228;-63
2022/06/02 18:04:36;;;;;;;3.45;1.75;;;16.50;99.90;;;;;;5028923;28;20224;-63
2022/06/02 18:07:29;;;;;;;2.90;1.70;;;16.50;99.90;;;;;;5026680;28;20974;-62
2022/06/02 18:10:25;;;;;;;3.75;1.90;;;16.30;99.90;;;;;;5043015;28;20712;-62
2022/06/02 18:13:19;;;;;;;1.92;1.65;;;16.30;99.90;;;;;;5037325;28;20201;-62
2022/06/02 18:16:01;;;;;;;3.88;1.80;;;16.10;99.90;;;;;;5032174;28;20219;-63
2022/06/02 18:19:00;;;;;;;4.90;2.38;;;16.10;99.90;;;;;;5034447;28;20239;-62
2022/06/02 18:21:54;;;;;;;7.53;2.03;;;16.20;99.90;;;;;;5044911;28;20216;-62
2022/06/02 18:24:38;;;;;;;4.93;2.00;;;16.00;99.90;;;;;;5034936;28;20207;-62
2022/06/02 18:27:30;;;;;;;4.30;2.30;;;15.90;99.90;;;;;;5052839;28;20264;-62
2022/06/02 18:30:08;;;;;;;5.78;1.98;;;15.80;99.90;;;;;;5067142;28;20192;-62
2022/06/02 18:33:04;;;;;;;7.50;1.90;;;15.70;99.90;;;;;;5031420;28;20231;-63
2022/06/02 18:35:42;;;;;;;6.13;2.28;;;15.70;99.90;;;;;;5049068;28;20339;-62
2022/06/02 18:38:33;;;;;;;3.15;2.35;;;15.60;99.90;;;;;;5033254;28;20235;-61
2022/06/02 18:41:33;;;;;;;4.15;2.10;;;15.40;99.90;;;;;;5026996;28;20836;-61
2022/06/02 18:44:28;;;;;;;9.15;2.08;;;15.30;99.90;;;;;;5042814;28;20227;-61
2022/06/02 18:47:24;;;;;;;8.52;1.92;;;15.30;99.90;;;;;;5026752;28;21568;-61
2022/06/02 18:50:29;;;;;;;4.00;2.00;;;16.90;99.90;;;;;;5030040;28;21168;-62
2022/06/02 18:53:34;;;;;;;2.00;1.80;;;15.40;99.90;;;;;;5043109;28;20223;-63
2022/06/02 18:56:19;;;;;;;3.35;1.90;;;15.60;99.90;;;;;;5020488;28;20835;-62
2022/06/02 18:59:15;;;;;;;5.43;1.90;;;15.20;99.90;;;;;;5058927;28;20204;-62
2022/06/02 19:02:15;;;;;;;6.18;2.10;;;14.70;99.90;;;;;;5036658;28;20204;-62
2022/06/02 19:05:18;;;;;;;3.30;1.98;;;14.70;99.90;;;;;;5016384;28;20223;-62
2022/06/02 19:14:27;;;;;;;4.45;2.10;;;14.30;99.90;;;;;;5048181;28;20231;-63
2022/06/02 19:17:16;;;;;;;8.40;2.33;;;14.00;99.90;;;;;;5028478;28;20455;-62
2022/06/02 19:20:14;;;;;;;6.10;1.90;;;14.00;99.90;;;;;;5019683;28;20885;-62
2022/06/02 19:22:56;;;;;;;9.43;1.95;;;14.00;99.90;;;;;;5025681;28;20254;-62
2022/06/02 19:25:35;;;;;;;4.05;1.85;;;13.90;99.90;;;;;;5009546;28;20395;-62
2022/06/02 19:28:29;;;;;;;6.43;2.10;;;14.10;99.90;;;;;;5018297;28;20229;-62
2022/06/02 19:31:15;;;;;;;4.22;2.05;;;14.60;99.90;;;;;;5052475;28;20393;-63
2022/06/02 19:34:01;;;;;;;7.70;2.20;;;13.80;99.90;;;;;;5026213;28;20361;-62
2022/06/02 19:36:41;;;;;;;3.65;1.92;;;13.90;99.90;;;;;;5032542;28;20216;-61
2022/06/02 19:39:16;;;;;;;4.15;1.90;;;13.80;99.90;;;;;;5030581;28;20955;-62
2022/06/02 19:41:51;;;;;;;2.33;1.85;;;13.70;99.90;;;;;;5004799;28;20845;-62
2022/06/02 19:44:26;;;;;;;4.13;1.98;;;13.70;99.90;;;;;;5029228;28;20735;-62
2022/06/02 19:47:12;;;;;;;4.40;2.00;;;13.60;99.90;;;;;;5020629;28;20369;-63
2022/06/02 19:49:53;;;;;;;2.13;1.75;;;13.50;99.90;;;;;;5018144;28;20700;-62
2022/06/02 19:52:31;;;;;;;3.20;2.22;;;13.40;99.90;;;;;;5021555;28;20308;-62
2022/06/02 19:55:39;;;;;;;8.82;2.53;;;13.20;99.90;;;;;;5022559;28;20235;-62
2022/06/02 19:58:11;;;;;;;4.78;1.95;;;13.30;99.90;;;;;;5018228;28;20220;-62
2022/06/02 20:00:50;;;;;;;2.78;1.83;;;13.20;99.90;;;;;;5052461;28;20196;-61
2022/06/02 20:03:22;;;;;;;3.33;1.80;;;11.30;99.90;;;;;;5036402;28;20230;-61
2022/06/02 20:05:54;;;;;;;5.70;2.08;;;13.10;99.90;;;;;;5033524;28;20201;-61
2022/06/02 20:08:29;;;;;;;5.57;2.30;;;13.20;99.90;;;;;;5040583;28;20263;-61
2022/06/02 20:11:03;;;;;;;4.70;2.15;;;12.80;99.90;;;;;;5027350;28;20235;-62
2022/06/02 20:13:33;;;;;;;5.05;1.85;;;12.90;99.90;;;;;;5032350;28;20759;-62
2022/06/02 20:16:06;;;;;;;5.13;2.42;;;12.80;99.90;;;;;;5036586;28;22865;-62
2022/06/02 20:18:38;;;;;;;3.75;1.73;;;12.70;99.90;;;;;;5029643;28;20227;-63
2022/06/02 20:21:15;;;;;;;4.32;2.17;;;12.80;99.90;;;;;;5038749;28;20196;-62
2022/06/02 20:23:53;;;;;;;7.75;2.35;;;12.80;99.90;;;;;;5028048;28;20215;-62
2022/06/02 20:26:25;;;;;;;8.00;1.90;;;12.80;99.90;;;;;;5033340;28;20204;-62
2022/06/02 20:28:58;;;;;;;3.42;2.47;;;12.80;99.90;;;;;;5045390;28;20242;-62
2022/06/02 20:31:29;;;;;;;4.15;2.10;;;12.70;99.90;;;;;;5062418;28;20235;-62
2022/06/02 20:34:15;;;;;;;5.60;2.30;;;12.70;99.90;;;;;;5029792;28;20204;-62
2022/06/02 20:36:52;;;;;;;6.38;2.70;;;12.70;99.90;;;;;;5046215;28;20200;-62
2022/06/02 20:39:39;;;;;;;7.93;2.15;;;12.70;99.90;;;;;;5031847;28;20223;-62
2022/06/02 20:42:26;;;;;;;3.70;2.30;;;12.70;99.90;;;;;;5047163;28;20223;-63
2022/06/02 20:45:01;;;;;;;6.88;2.90;;;12.70;99.90;;;;;;5044275;28;20254;-63
2022/06/02 20:47:49;;;;;;;7.75;2.38;;;12.70;99.90;;;;;;5064452;28;20719;-62
2022/06/02 20:50:20;;;;;;;3.60;2.38;;;12.80;99.90;;;;;;5050240;28;20738;-63
2022/06/02 20:52:52;;;;;;;3.38;2.30;;;12.80;99.90;;;;;;5064994;28;20192;-63
2022/06/02 20:55:25;;;;;;;3.85;2.20;;;12.70;99.90;;;;;;5036552;28;20219;-63
2022/06/02 20:57:56;;;;;;;2.72;2.10;;;;;;;;;;5044713;28;20201;-63
2022/06/02 21:00:34;;;;;;;4.15;2.30;;;12.60;99.90;;;;;;5052081;28;20212;-63
2022/06/02 21:03:09;;;;;;;5.35;2.20;;;12.60;99.90;;;;;;5068675;28;21158;-62
2022/06/02 21:05:40;;;;;;;4.90;2.40;;;13.20;99.90;;;;;;5050344;28;20515;-63
2022/06/02 21:08:12;;;;;;;5.72;2.50;;;12.50;99.90;;;;;;5065133;28;20200;-63
2022/06/02 21:10:43;;;;;;;6.05;2.35;;;12.50;99.90;;;;;;5039041;28;20207;-62
2022/06/02 21:13:18;;;;;;;6.57;2.40;;;12.40;99.90;;;;;;5051845;28;20859;-62
2022/06/02 21:16:16;;;;;;;4.57;2.28;;;12.40;99.90;;;;;;5057531;28;20863;-63
2022/06/02 21:18:51;;;;;;;6.28;2.25;;;12.30;99.90;;;;;;5074416;28;20196;-63
2022/06/02 21:21:25;;;;;;;6.53;2.72;;;12.20;99.90;;;;;;5056519;28;20204;-63
2022/06/02 21:24:04;;;;;;;5.18;2.42;;;12.00;99.90;;;;;;5075344;28;20196;-63
2022/06/02 21:27:05;;;;;;;3.95;2.30;;;12.00;99.90;;;;;;5044144;28;21360;-63
2022/06/02 21:29:35;;;;;;;9.98;2.75;;;11.90;99.90;;;;;;5066866;28;20254;-63
2022/06/02 21:32:14;;;;;;;4.55;2.85;;;11.80;99.90;;;;;;5057830;28;20215;-62
2022/06/02 21:34:45;;;;;;;9.23;3.05;;;11.90;99.90;;;;;;5075673;28;20211;-63
2022/06/02 21:37:14;;;;;;;4.18;2.80;;;11.90;99.90;;;;;;5059466;28;20204;-64
2022/06/02 21:39:47;;;;;;;3.78;3.08;;;11.90;99.90;;;;;;5072092;28;20197;-62
2022/06/02 21:42:26;;;;;;;5.63;2.83;;;11.90;99.90;;;;;;5040808;28;20192;-63
2022/06/02 21:44:57;;;;;;;6.28;2.92;;;11.90;99.90;;;;;;5063054;28;20200;-63
2022/06/02 21:47:32;;;;;;;5.43;3.10;;;11.80;99.90;;;;;;5055642;28;20228;-63
2022/06/02 21:50:09;;;;;;;6.82;3.50;;;11.80;99.90;;;;;;5070678;28;20231;-62
2022/06/02 21:52:41;;;;;;;5.40;2.75;;;11.80;99.90;;;;;;5056365;28;20882;-62
2022/06/02 21:55:17;;;;;;;4.60;2.90;;;11.40;99.90;;;;;;5071926;28;20195;-62
2022/06/02 21:57:55;;;;;;;5.68;3.13;;;11.60;99.90;;;;;;5055239;28;20192;-63
2022/06/02 22:00:49;;;;;;;7.43;3.28;;;11.50;99.90;;;;;;5057232;28;20206;-63
2022/06/02 22:03:23;;;;;;;7.95;3.38;;;11.40;99.90;;;;;;5056362;28;20576;-63
2022/06/02 22:05:57;;;;;;;5.38;3.05;;;11.40;99.90;;;;;;5071508;28;20192;-63
2022/06/02 22:08:32;;;;;;;7.10;3.97;;;11.30;99.90;;;;;;5058491;28;20195;-63
2022/06/02 22:11:09;;;;;;;9.65;3.65;;;11.40;99.90;;;;;;5076436;28;20645;-62
2022/06/02 22:13:44;;;;;;;6.55;3.65;;;11.40;99.90;;;;;;5055283;28;20220;-62
2022/06/02 22:16:15;;;;;;;6.00;3.40;;;11.40;99.90;;;;;;5058933;28;20672;-63
2022/06/02 22:19:00;;;;;;;4.38;3.15;;;11.30;99.90;;;;;;5061364;28;20212;-63
2022/06/02 22:21:38;;;;;;;4.85;3.60;;;11.30;99.90;;;;;;5073129;28;20196;-63
2022/06/02 22:24:18;;;;;;;14.13;4.25;;;11.20;99.90;;;;;;5025371;28;20215;-63
2022/06/02 22:26:55;;;;;;;6.10;3.40;;;11.30;99.90;;;;;;5078913;28;20211;-63
2022/06/02 22:29:28;;;;;;;9.70;3.65;;;11.20;99.90;;;;;;5056810;28;20235;-63
2022/06/02 22:32:23;;;;;;;8.75;3.65;;;11.20;99.90;;;;;;5061323;28;20200;-62
2022/06/02 22:35:00;;;;;;;8.10;3.80;;;11.30;99.90;;;;;;5063446;28;20985;-63
2022/06/02 22:37:46;;;;;;;3.92;3.33;;;11.30;99.90;;;;;;5072053;28;20200;-63
2022/06/02 22:40:29;;;;;;;6.05;3.67;;;10.60;99.90;;;;;;5058601;28;20576;-63
2022/06/02 22:43:19;;;;;;;5.35;3.30;;;11.20;99.90;;;;;;5064808;28;20580;-63
2022/06/02 22:46:06;;;;;;;7.03;3.70;;;11.10;99.90;;;;;;5074999;28;20207;-61
2022/06/02 22:48:52;;;;;;;7.60;3.47;;;11.10;99.90;;;;;;5055453;28;20208;-63
2022/06/02 22:51:35;;;;;;;5.55;3.13;;;11.10;99.90;;;;;;5073978;28;20204;-63
2022/06/02 22:54:29;;;;;;;6.43;3.47;;;11.10;99.90;;;;;;5061101;28;20207;-62
2022/06/02 22:57:09;;;;;;;8.10;3.53;;;11.20;99.90;;;;;;5073165;28;20196;-63
2022/06/02 22:59:50;;;;;;;11.25;4.07;;;11.10;99.90;;;;;;5053635;28;20201;-63
2022/06/02 23:02:25;;;;;;;8.10;3.75;;;11.10;99.90;;;;;;5061134;28;20215;-62
2022/06/02 23:05:19;;;;;;;8.02;3.80;;;11.10;99.90;;;;;;5061844;28;20204;-63
2022/06/02 23:08:20;;;;;;;7.60;3.53;;;11.00;99.90;;;;;;5067073;28;20196;-63
2022/06/02 23:11:14;;;;;;;9.02;4.07;;;10.90;99.90;;;;;;5063756;28;20327;-62
2022/06/02 23:13:55;;;;;;;7.30;4.03;;;10.80;99.90;;;;;;5051765;28;20231;-62
2022/06/02 23:16:52;;;;;;;8.55;4.07;;;10.90;99.90;;;;;;5075643;28;20211;-63
2022/06/02 23:19:36;;;;;;;9.68;4.10;;;10.80;99.90;;;;;;5057619;28;20204;-63
2022/06/02 23:22:48;;;;;;;5.18;3.60;;;10.70;99.90;;;;;;5072119;28;20208;-63
2022/06/02 23:25:28;;;;;;;6.60;3.92;;;10.70;99.90;;;;;;5043151;28;20214;-62
2022/06/02 23:28:21;;;;;;;5.05;4.00;;;10.70;99.90;;;;;;5063926;28;20708;-63
2022/06/02 23:31:03;;;;;;;5.93;3.92;;;10.60;99.90;;;;;;5056313;28;20320;-63
2022/06/02 23:34:06;;;;;;;5.28;3.88;;;10.60;99.90;;;;;;5059659;28;20197;-62
2022/06/02 23:36:53;;;;;;;4.30;3.72;;;10.50;99.90;;;;;;5068478;28;20679;-63
2022/06/02 23:39:36;;;;;;;5.30;3.90;;;10.60;99.90;;;;;;5063309;28;20208;-62
2022/06/02 23:45:33;;;;;;;7.57;4.07;;;10.50;99.90;;;;;;5044052;28;20291;-63
2022/06/02 23:48:10;;;;;;;6.10;4.20;;;10.50;99.90;;;;;;5060041;28;20286;-63
2022/06/02 23:50:57;;;;;;;6.15;3.72;;;10.50;99.90;;;;;;5058781;28;20598;-62
2022/06/02 23:54:00;;;;;;;5.70;3.97;;;10.30;99.90;;;;;;5071304;28;20196;-62
2022/06/02 23:56:51;;;;;;;6.55;4.43;;;10.30;99.90;;;;;;5072390;28;20216;-63
2022/06/02 23:59:38;;;;;;;9.85;4.43;;;10.20;99.90;;;;;;5055727;28;20673;-62
